sensor_id;sensor_type;location;lat;lon;timestamp;pressure;altitude;pressure_sealevel;temperature;humidity
32330;BME280;18807;52.434;13.238;2022-09-29T00:04:04;99600.47;;;8.95;100.00
32330;BME280;18807;52.434;13.238;2022-09-29T00:11:39;99595.16;;;8.92;100.00
32330;BME280;18807;52.434;13.238;2022-09-29T00:19:12;99606.69;;;8.87;100.00
32330;BME280;18807;52.434;13.238;2022-09-29T00:26:47;99601.34;;;8.85;100.00
32330;BME280;18807;52.434;13.238;2022-09-29T00:34:21;99595.13;;;8.86;100.00
32330;BME280;18807;52.434;13.238;2022-09-29T00:41:56;99591.56;;;8.84;100.00
32330;BME280;18807;52.434;13.238;2022-09-29T00:49:37;99598.69;;;8.82;100.00
32330;BME280;18807;52.434;13.238;2022-09-29T00:57:15;99596.91;;;8.78;100.00
32330;BME280;18807;52.434;13.238;2022-09-29T01:04:51;99605.72;;;8.71;100.00
32330;BME280;18807;52.434;13.238;2022-09-29T01:12:27;99614.59;;;8.64;100.00
32330;BME280;18807;52.434;13.238;2022-09-29T01:20:09;99623.44;;;8.59;100.00
32330;BME280;18807;52.434;13.238;2022-09-29T01:27:58;99636.72;;;8.51;100.00
32330;BME280;18807;52.434;13.238;2022-09-29T01:35:45;99641.13;;;8.48;100.00
32330;BME280;18807;52.434;13.238;2022-09-29T01:43:24;99645.53;;;8.47;100.00
32330;BME280;18807;52.434;13.238;2022-09-29T01:51:05;99640.22;;;8.47;100.00
32330;BME280;18807;52.434;13.238;2022-09-29T01:58:46;99644.69;;;8.50;100.00
32330;BME280;18807;52.434;13.238;2022-09-29T02:06:24;99649.13;;;8.52;100.00
32330;BME280;18807;52.434;13.238;2022-09-29T02:14:04;99659.75;;;8.51;100.00
32330;BME280;18807;52.434;13.238;2022-09-29T02:21:41;99657.97;;;8.45;100.00
32330;BME280;18807;52.434;13.238;2022-09-29T02:29:15;99666.81;;;8.47;100.00
32330;BME280;18807;52.434;13.238;2022-09-29T02:36:57;99673.94;;;8.50;100.00
32330;BME280;18807;52.434;13.238;2022-09-29T02:44:45;99673.06;;;8.51;100.00
32330;BME280;18807;52.434;13.238;2022-09-29T02:52:30;99672.19;;;8.53;100.00
32330;BME280;18807;52.434;13.238;2022-09-29T03:00:11;99672.19;;;8.55;100.00
32330;BME280;18807;52.434;13.238;2022-09-29T03:07:48;99678.41;;;8.54;100.00
32330;BME280;18807;52.434;13.238;2022-09-29T03:15:22;99675.75;;;8.57;100.00
32330;BME280;18807;52.434;13.238;2022-09-29T03:22:57;99675.75;;;8.57;100.00
32330;BME280;18807;52.434;13.238;2022-09-29T03:30:31;99669.53;;;8.58;100.00
32330;BME280;18807;52.434;13.238;2022-09-29T03:38:06;99680.19;;;8.56;100.00
32330;BME280;18807;52.434;13.238;2022-09-29T03:45:47;99686.41;;;8.55;100.00
32330;BME280;18807;52.434;13.238;2022-09-29T03:53:22;99692.63;;;8.57;100.00
32330;BME280;18807;52.434;13.238;2022-09-29T04:00:55;99697.06;;;8.61;100.00
32330;BME280;18807;52.434;13.238;2022-09-29T04:08:31;99694.41;;;8.63;100.00
32330;BME280;18807;52.434;13.238;2022-09-29T04:16:05;99701.50;;;8.64;100.00
32330;BME280;18807;52.434;13.238;2022-09-29T04:23:40;99708.63;;;8.63;100.00
32330;BME280;18807;52.434;13.238;2022-09-29T04:31:14;99710.41;;;8.64;100.00
32330;BME280;18807;52.434;13.238;2022-09-29T04:38:49;99709.50;;;8.65;100.00
32330;BME280;18807;52.434;13.238;2022-09-29T04:46:22;99722.81;;;8.64;100.00
32330;BME280;18807;52.434;13.238;2022-09-29T04:53:58;99713.94;;;8.62;100.00
32330;BME280;18807;52.434;13.238;2022-09-29T05:01:32;99729.88;;;8.57;100.00
32330;BME280;18807;52.434;13.238;2022-09-29T05:09:07;99736.06;;;8.58;100.00
32330;BME280;18807;52.434;13.238;2022-09-29T05:16:41;99740.56;;;8.60;100.00
32330;BME280;18807;52.434;13.238;2022-09-29T05:24:16;99745.88;;;8.63;100.00
32330;BME280;18807;52.434;13.238;2022-09-29T05:31:50;99738.78;;;8.64;100.00
32330;BME280;18807;52.434;13.238;2022-09-29T05:39:25;99750.31;;;8.64;100.00
32330;BME280;18807;52.434;13.238;2022-09-29T05:46:59;99749.44;;;8.65;100.00
32330;BME280;18807;52.434;13.238;2022-09-29T05:54:34;99753.91;;;8.68;100.00
32330;BME280;18807;52.434;13.238;2022-09-29T06:02:08;99754.75;;;8.67;100.00
32330;BME280;18807;52.434;13.238;2022-09-29T06:09:43;99762.78;;;8.70;100.00
32330;BME280;18807;52.434;13.238;2022-09-29T06:17:19;99762.75;;;8.68;100.00
32330;BME280;18807;52.434;13.238;2022-09-29T06:24:54;99768.91;;;8.57;100.00
32330;BME280;18807;52.434;13.238;2022-09-29T06:32:27;99784.03;;;8.65;100.00
32330;BME280;18807;52.434;13.238;2022-09-29T06:40:04;99775.22;;;8.72;100.00
32330;BME280;18807;52.434;13.238;2022-09-29T06:47:42;99784.91;;;8.61;100.00
32330;BME280;18807;52.434;13.238;2022-09-29T06:55:17;99785.81;;;8.65;100.00
32330;BME280;18807;52.434;13.238;2022-09-29T07:02:51;99784.97;;;8.69;100.00
32330;BME280;18807;52.434;13.238;2022-09-29T07:10:27;99784.09;;;8.74;100.00
32330;BME280;18807;52.434;13.238;2022-09-29T07:18:01;99788.59;;;8.78;100.00
32330;BME280;18807;52.434;13.238;2022-09-29T07:25:36;99797.47;;;8.83;100.00
32330;BME280;18807;52.434;13.238;2022-09-29T07:33:23;99809.91;;;8.89;100.00
32330;BME280;18807;52.434;13.238;2022-09-29T07:41:11;99805.50;;;8.91;100.00
32330;BME280;18807;52.434;13.238;2022-09-29T07:48:44;99817.09;;;8.97;100.00
32330;BME280;18807;52.434;13.238;2022-09-29T07:56:21;99832.25;;;9.07;100.00
32330;BME280;18807;52.434;13.238;2022-09-29T08:03:55;99831.41;;;9.19;100.00
32330;BME280;18807;52.434;13.238;2022-09-29T08:11:31;99843.00;;;9.25;100.00
32330;BME280;18807;52.434;13.238;2022-09-29T08:19:06;99843.94;;;9.38;100.00
32330;BME280;18807;52.434;13.238;2022-09-29T08:26:41;99849.31;;;9.50;100.00
32330;BME280;18807;52.434;13.238;2022-09-29T08:34:16;99854.72;;;9.60;100.00
32330;BME280;18807;52.434;13.238;2022-09-29T08:41:53;99860.09;;;9.77;100.00
32330;BME280;18807;52.434;13.238;2022-09-29T08:49:34;99864.56;;;9.84;100.00
32330;BME280;18807;52.434;13.238;2022-09-29T08:57:13;99866.38;;;10.00;100.00
32330;BME280;18807;52.434;13.238;2022-09-29T09:04:57;99872.72;;;10.28;100.00
32330;BME280;18807;52.434;13.238;2022-09-29T09:12:59;99878.97;;;10.46;100.00
32330;BME280;18807;52.434;13.238;2022-09-29T09:20:40;99877.22;;;10.56;100.00
32330;BME280;18807;52.434;13.238;2022-09-29T09:28:20;99886.09;;;10.88;100.00
32330;BME280;18807;52.434;13.238;2022-09-29T09:35:58;99885.19;;;11.07;100.00
32330;BME280;18807;52.434;13.238;2022-09-29T09:43:40;99894.88;;;11.69;100.00
32330;BME280;18807;52.434;13.238;2022-09-29T09:51:31;99884.88;;;12.10;100.00
32330;BME280;18807;52.434;13.238;2022-09-29T09:59:18;99887.31;;;12.50;100.00
32330;BME280;18807;52.434;13.238;2022-09-29T10:06:54;99905.38;;;12.19;96.85
32330;BME280;18807;52.434;13.238;2022-09-29T10:14:30;99898.88;;;12.58;100.00
32330;BME280;18807;52.434;13.238;2022-09-29T10:22:12;99894.41;;;12.58;92.77
32330;BME280;18807;52.434;13.238;2022-09-29T10:29:48;99900.50;;;12.80;91.21
32330;BME280;18807;52.434;13.238;2022-09-29T10:37:29;99910.06;;;13.15;84.67
32330;BME280;18807;52.434;13.238;2022-09-29T10:45:12;99909.00;;;13.30;82.36
32330;BME280;18807;52.434;13.238;2022-09-29T10:52:50;99911.69;;;13.30;79.83
32330;BME280;18807;52.434;13.238;2022-09-29T11:00:31;99909.06;;;13.24;80.51
32330;BME280;18807;52.434;13.238;2022-09-29T11:08:10;99917.97;;;13.29;78.54
32330;BME280;18807;52.434;13.238;2022-09-29T11:15:46;99928.69;;;13.29;79.58
32330;BME280;18807;52.434;13.238;2022-09-29T11:23:26;99929.63;;;13.23;77.44
32330;BME280;18807;52.434;13.238;2022-09-29T11:39:09;99930.47;;;13.28;77.12
32330;BME280;18807;52.434;13.238;2022-09-29T11:46:54;99928.66;;;13.33;77.28
32330;BME280;18807;52.434;13.238;2022-09-29T11:55:00;99939.31;;;13.41;76.45
32330;BME280;18807;52.434;13.238;2022-09-29T12:10:51;99949.25;;;13.28;75.13
32330;BME280;18807;52.434;13.238;2022-09-29T12:18:31;99944.94;;;13.14;72.30
32330;BME280;18807;52.434;13.238;2022-09-29T12:26:14;99943.13;;;13.16;75.48
32330;BME280;18807;52.434;13.238;2022-09-29T12:33:52;99954.66;;;13.24;77.49
32330;BME280;18807;52.434;13.238;2022-09-29T12:41:29;99948.38;;;13.25;77.98
32330;BME280;18807;52.434;13.238;2022-09-29T12:49:16;99946.63;;;13.22;79.34
32330;BME280;18807;52.434;13.238;2022-09-29T12:56:54;99950.25;;;13.18;79.45
32330;BME280;18807;52.434;13.238;2022-09-29T13:04:46;99952.00;;;13.19;79.25
32330;BME280;18807;52.434;13.238;2022-09-29T13:20:51;99960.94;;;13.24;78.68
32330;BME280;18807;52.434;13.238;2022-09-29T13:28:32;99971.63;;;13.27;76.99
32330;BME280;18807;52.434;13.238;2022-09-29T13:36:08;99965.34;;;13.30;77.24
32330;BME280;18807;52.434;13.238;2022-09-29T13:44:20;99973.34;;;13.33;76.81
32330;BME280;18807;52.434;13.238;2022-09-29T13:51:58;99975.13;;;13.32;76.71
32330;BME280;18807;52.434;13.238;2022-09-29T13:59:35;99982.28;;;13.36;75.67
32330;BME280;18807;52.434;13.238;2022-09-29T14:07:34;99985.81;;;13.37;74.39
32330;BME280;18807;52.434;13.238;2022-09-29T14:15:15;99984.84;;;13.50;73.66
32330;BME280;18807;52.434;13.238;2022-09-29T14:23:00;99992.91;;;13.48;68.04
32330;BME280;18807;52.434;13.238;2022-09-29T14:30:42;100005.34;;;13.55;69.16
32330;BME280;18807;52.434;13.238;2022-09-29T14:38:21;100008.03;;;13.54;66.91
32330;BME280;18807;52.434;13.238;2022-09-29T14:54:17;100012.53;;;13.52;68.41
32330;BME280;18807;52.434;13.238;2022-09-29T15:02:17;100026.81;;;13.55;70.96
32330;BME280;18807;52.434;13.238;2022-09-29T15:09:54;100018.81;;;13.48;70.14
32330;BME280;18807;52.434;13.238;2022-09-29T15:17:37;100027.78;;;13.48;72.41
32330;BME280;18807;52.434;13.238;2022-09-29T15:25:22;100031.31;;;13.52;74.79
32330;BME280;18807;52.434;13.238;2022-09-29T15:33:08;100036.69;;;13.49;74.38
32330;BME280;18807;52.434;13.238;2022-09-29T15:40:54;100037.59;;;13.49;74.69
32330;BME280;18807;52.434;13.238;2022-09-29T15:48:29;100046.56;;;13.48;73.79
32330;BME280;18807;52.434;13.238;2022-09-29T15:56:05;100044.78;;;13.46;75.38
32330;BME280;18807;52.434;13.238;2022-09-29T16:03:42;100051.16;;;13.30;74.05
32330;BME280;18807;52.434;13.238;2022-09-29T16:11:21;100045.88;;;13.21;74.58
32330;BME280;18807;52.434;13.238;2022-09-29T16:19:00;100049.53;;;13.06;74.62
32330;BME280;18807;52.434;13.238;2022-09-29T16:26:38;100060.31;;;13.02;76.31
32330;BME280;18807;52.434;13.238;2022-09-29T16:34:25;100089.78;;;12.97;81.00
32330;BME280;18807;52.434;13.238;2022-09-29T16:42:02;100093.44;;;12.84;85.37
32330;BME280;18807;52.434;13.238;2022-09-29T16:49:44;100107.81;;;12.65;88.01
32330;BME280;18807;52.434;13.238;2022-09-29T16:57:23;100123.03;;;12.50;89.95
32330;BME280;18807;52.434;13.238;2022-09-29T17:04:58;100127.56;;;12.31;90.95
32330;BME280;18807;52.434;13.238;2022-09-29T17:12:34;100145.44;;;12.13;93.27
32330;BME280;18807;52.434;13.238;2022-09-29T17:20:08;100159.72;;;11.95;95.65
32330;BME280;18807;52.434;13.238;2022-09-29T17:27:47;100159.72;;;11.77;98.01
32330;BME280;18807;52.434;13.238;2022-09-29T17:35:45;100165.94;;;11.59;99.91
32330;BME280;18807;52.434;13.238;2022-09-29T17:43:27;100182.84;;;11.45;100.00
32330;BME280;18807;52.434;13.238;2022-09-29T17:51:03;100189.06;;;11.32;100.00
32330;BME280;18807;52.434;13.238;2022-09-29T17:58:38;100197.91;;;11.19;100.00
32330;BME280;18807;52.434;13.238;2022-09-29T18:06:15;100204.09;;;11.03;100.00
32330;BME280;18807;52.434;13.238;2022-09-29T18:13:53;100202.22;;;10.84;100.00
32330;BME280;18807;52.434;13.238;2022-09-29T18:21:27;100214.63;;;10.71;100.00
32330;BME280;18807;52.434;13.238;2022-09-29T18:29:15;100213.66;;;10.56;100.00
32330;BME280;18807;52.434;13.238;2022-09-29T18:36:50;100219.81;;;10.41;100.00
32330;BME280;18807;52.434;13.238;2022-09-29T18:44:25;100224.16;;;10.32;100.00
32330;BME280;18807;52.434;13.238;2022-09-29T18:52:04;100217.88;;;10.19;100.00
32330;BME280;18807;52.434;13.238;2022-09-29T18:59:41;100223.09;;;10.07;100.00
32330;BME280;18807;52.434;13.238;2022-09-29T19:07:15;100231.84;;;9.95;100.00
32330;BME280;18807;52.434;13.238;2022-09-29T19:14:52;100227.28;;;9.84;100.00
32330;BME280;18807;52.434;13.238;2022-09-29T19:22:26;100253.84;;;9.73;100.00
32330;BME280;18807;52.434;13.238;2022-09-29T19:30:12;100252.88;;;9.62;100.00
32330;BME280;18807;52.434;13.238;2022-09-29T19:37:46;100248.34;;;9.52;100.00
32330;BME280;18807;52.434;13.238;2022-09-29T19:45:21;100253.56;;;9.43;100.00
32330;BME280;18807;52.434;13.238;2022-09-29T19:52:55;100256.16;;;9.37;100.00
32330;BME280;18807;52.434;13.238;2022-09-29T20:00:30;100265.84;;;9.31;100.00
32330;BME280;18807;52.434;13.238;2022-09-29T20:08:06;100263.97;;;9.24;100.00
32330;BME280;18807;52.434;13.238;2022-09-29T20:15:41;100274.53;;;9.15;100.00
32330;BME280;18807;52.434;13.238;2022-09-29T20:23:17;100282.38;;;9.04;100.00
32330;BME280;18807;52.434;13.238;2022-09-29T20:30:56;100291.97;;;8.93;100.00
32330;BME280;18807;52.434;13.238;2022-09-29T20:38:30;100301.63;;;8.84;100.00
32330;BME280;18807;52.434;13.238;2022-09-29T20:46:07;100300.59;;;8.74;100.00
32330;BME280;18807;52.434;13.238;2022-09-29T20:53:42;100315.56;;;8.66;100.00
32330;BME280;18807;52.434;13.238;2022-09-29T21:01:20;100329.63;;;8.59;100.00
32330;BME280;18807;52.434;13.238;2022-09-29T21:08:56;100338.41;;;8.52;100.00
32330;BME280;18807;52.434;13.238;2022-09-29T21:16:31;100340.03;;;8.43;100.00
32330;BME280;18807;52.434;13.238;2022-09-29T21:24:05;100342.53;;;8.34;100.00
32330;BME280;18807;52.434;13.238;2022-09-29T21:31:40;100354.75;;;8.23;100.00
32330;BME280;18807;52.434;13.238;2022-09-29T21:39:14;100360.00;;;8.21;100.00
32330;BME280;18807;52.434;13.238;2022-09-29T21:46:50;100361.69;;;8.16;100.00
32330;BME280;18807;52.434;13.238;2022-09-29T21:54:23;100373.91;;;8.05;100.00
32330;BME280;18807;52.434;13.238;2022-09-29T22:01:59;100376.34;;;7.94;100.00
32330;BME280;18807;52.434;13.238;2022-09-29T22:09:32;100380.63;;;7.86;100.00
32330;BME280;18807;52.434;13.238;2022-09-29T22:17:08;100383.06;;;7.76;100.00
32330;BME280;18807;52.434;13.238;2022-09-29T22:24:41;100390.91;;;7.68;100.00
32330;BME280;18807;52.434;13.238;2022-09-29T22:32:16;100386.28;;;7.60;100.00
32330;BME280;18807;52.434;13.238;2022-09-29T22:39:50;100402.88;;;7.48;100.00
32330;BME280;18807;52.434;13.238;2022-09-29T22:47:25;100411.63;;;7.43;100.00
32330;BME280;18807;52.434;13.238;2022-09-29T22:54:59;100414.94;;;7.34;100.00
32330;BME280;18807;52.434;13.238;2022-09-29T23:02:34;100417.59;;;7.33;100.00
32330;BME280;18807;52.434;13.238;2022-09-29T23:10:08;100424.56;;;7.28;100.00
32330;BME280;18807;52.434;13.238;2022-09-29T23:17:44;100432.41;;;7.22;100.00
32330;BME280;18807;52.434;13.238;2022-09-29T23:25:17;100434.91;;;7.16;100.00
32330;BME280;18807;52.434;13.238;2022-09-29T23:32:53;100436.41;;;7.05;100.00
32330;BME280;18807;52.434;13.238;2022-09-29T23:40:26;100443.41;;;7.01;100.00
32330;BME280;18807;52.434;13.238;2022-09-29T23:48:02;100444.16;;;6.94;100.00
32330;BME280;18807;52.434;13.238;2022-09-29T23:55:35;100444.00;;;6.88;100.00
